sensor_id;sensor_type;location;lat;lon;timestamp;temperature;humidity
42147;DHT22;27815;43.410;11.852;2023-02-28T08:38:45;8.60;63.60
42147;DHT22;27815;43.410;11.852;2023-02-28T08:49:11;9.00;63.20
42147;DHT22;27815;43.410;11.852;2023-02-28T08:53:14;9.30;62.60
42147;DHT22;27815;43.410;11.852;2023-02-28T09:27:50;9.90;59.40
42147;DHT22;27815;43.410;11.852;2023-02-28T09:36:25;9.70;59.40
42147;DHT22;27815;43.410;11.852;2023-02-28T09:47:14;9.60;59.30
42147;DHT22;27815;43.410;11.852;2023-02-28T09:55:53;10.00;59.80
42147;DHT22;27815;43.410;11.852;2023-02-28T10:00:19;10.50;59.00
42147;DHT22;27815;43.410;11.852;2023-02-28T10:04:44;10.50;58.50
42147;DHT22;27815;43.410;11.852;2023-02-28T10:09:02;10.50;57.90
42147;DHT22;27815;43.410;11.852;2023-02-28T10:18:05;10.70;57.30
42147;DHT22;27815;43.410;11.852;2023-02-28T10:22:28;11.00;56.40
42147;DHT22;27815;43.410;11.852;2023-02-28T10:26:34;11.10;55.00
42147;DHT22;27815;43.410;11.852;2023-02-28T10:30:41;11.20;55.10
42147;DHT22;27815;43.410;11.852;2023-02-28T10:43:36;11.30;54.50
42147;DHT22;27815;43.410;11.852;2023-02-28T10:56:29;11.70;54.10
42147;DHT22;27815;43.410;11.852;2023-02-28T11:20:18;11.70;53.40
42147;DHT22;27815;43.410;11.852;2023-02-28T11:53:25;11.80;53.20
42147;DHT22;27815;43.410;11.852;2023-02-28T12:10:43;11.90;53.30
42147;DHT22;27815;43.410;11.852;2023-02-28T12:19:20;11.80;53.40
42147;DHT22;27815;43.410;11.852;2023-02-28T12:23:33;11.60;53.60
42147;DHT22;27815;43.410;11.852;2023-02-28T12:27:45;11.60;53.40
42147;DHT22;27815;43.410;11.852;2023-02-28T12:31:52;11.60;53.80
42147;DHT22;27815;43.410;11.852;2023-02-28T12:36:00;11.50;53.70
42147;DHT22;27815;43.410;11.852;2023-02-28T12:44:35;11.40;53.70
42147;DHT22;27815;43.410;11.852;2023-02-28T12:48:44;11.30;53.90
42147;DHT22;27815;43.410;11.852;2023-02-28T12:57:17;11.10;54.50
42147;DHT22;27815;43.410;11.852;2023-02-28T13:10:04;10.70;55.30
42147;DHT22;27815;43.410;11.852;2023-02-28T13:18:29;10.60;55.60
42147;DHT22;27815;43.410;11.852;2023-02-28T13:22:45;10.70;55.90
42147;DHT22;27815;43.410;11.852;2023-02-28T13:31:02;11.00;54.90
42147;DHT22;27815;43.410;11.852;2023-02-28T13:48:24;11.30;54.80
42147;DHT22;27815;43.410;11.852;2023-02-28T14:05:20;11.10;54.70
42147;DHT22;27815;43.410;11.852;2023-02-28T14:09:33;11.20;54.90
42147;DHT22;27815;43.410;11.852;2023-02-28T14:13:42;11.10;54.70
42147;DHT22;27815;43.410;11.852;2023-02-28T14:17:50;11.10;54.60
42147;DHT22;27815;43.410;11.852;2023-02-28T14:22:08;11.10;54.90
42147;DHT22;27815;43.410;11.852;2023-02-28T14:41:00;11.10;54.90
42147;DHT22;27815;43.410;11.852;2023-02-28T14:45:06;11.00;54.70
42147;DHT22;27815;43.410;11.852;2023-02-28T14:49:13;10.90;55.00
42147;DHT22;27815;43.410;11.852;2023-02-28T14:53:18;10.80;55.20
42147;DHT22;27815;43.410;11.852;2023-02-28T14:57:31;10.70;55.30
42147;DHT22;27815;43.410;11.852;2023-02-28T15:06:14;10.70;55.60
42147;DHT22;27815;43.410;11.852;2023-02-28T15:14:25;10.80;55.60
42147;DHT22;27815;43.410;11.852;2023-02-28T15:23:06;10.60;55.80
42147;DHT22;27815;43.410;11.852;2023-02-28T15:27:13;10.50;56.10
42147;DHT22;27815;43.410;11.852;2023-02-28T15:31:19;10.30;56.50
42147;DHT22;27815;43.410;11.852;2023-02-28T15:39:28;10.00;57.20
42147;DHT22;27815;43.410;11.852;2023-02-28T15:43:36;10.00;57.50
42147;DHT22;27815;43.410;11.852;2023-02-28T15:47:44;9.90;57.80
42147;DHT22;27815;43.410;11.852;2023-02-28T15:51:49;9.70;58.10
42147;DHT22;27815;43.410;11.852;2023-02-28T15:55:54;9.60;58.50
42147;DHT22;27815;43.410;11.852;2023-02-28T16:06:32;9.20;59.40
42147;DHT22;27815;43.410;11.852;2023-02-28T16:10:36;9.10;60.00
42147;DHT22;27815;43.410;11.852;2023-02-28T16:19:15;8.80;60.80
42147;DHT22;27815;43.410;11.852;2023-02-28T16:23:23;8.60;61.30
42147;DHT22;27815;43.410;11.852;2023-02-28T16:36:35;8.30;62.60
42147;DHT22;27815;43.410;11.852;2023-02-28T16:40:39;8.20;62.90
42147;DHT22;27815;43.410;11.852;2023-02-28T16:44:42;8.10;63.10
42147;DHT22;27815;43.410;11.852;2023-02-28T16:53:26;8.10;63.50
42147;DHT22;27815;43.410;11.852;2023-02-28T16:57:30;8.00;63.80
42147;DHT22;27815;43.410;11.852;2023-02-28T17:01:39;7.90;64.10
42147;DHT22;27815;43.410;11.852;2023-02-28T17:05:46;7.90;64.20
42147;DHT22;27815;43.410;11.852;2023-02-28T17:23:55;7.80;64.50
42147;DHT22;27815;43.410;11.852;2023-02-28T17:39:26;7.70;64.60
42147;DHT22;27815;43.410;11.852;2023-02-28T17:56:27;7.60;64.70
42147;DHT22;27815;43.410;11.852;2023-02-28T18:00:32;7.60;64.80
42147;DHT22;27815;43.410;11.852;2023-02-28T18:04:36;7.50;65.00
42147;DHT22;27815;43.410;11.852;2023-02-28T18:08:38;7.60;65.00
42147;DHT22;27815;43.410;11.852;2023-02-28T18:12:45;7.60;65.00
42147;DHT22;27815;43.410;11.852;2023-02-28T18:16:52;7.60;65.00
42147;DHT22;27815;43.410;11.852;2023-02-28T18:20:55;7.60;65.00
42147;DHT22;27815;43.410;11.852;2023-02-28T18:24:58;7.60;65.00
42147;DHT22;27815;43.410;11.852;2023-02-28T18:29:00;7.60;65.10
42147;DHT22;27815;43.410;11.852;2023-02-28T18:33:03;7.60;65.10
42147;DHT22;27815;43.410;11.852;2023-02-28T18:37:06;7.60;65.10
42147;DHT22;27815;43.410;11.852;2023-02-28T18:41:08;7.60;65.10
42147;DHT22;27815;43.410;11.852;2023-02-28T18:45:11;7.60;65.20
42147;DHT22;27815;43.410;11.852;2023-02-28T18:49:14;7.60;65.20
42147;DHT22;27815;43.410;11.852;2023-02-28T18:53:17;7.60;65.20
42147;DHT22;27815;43.410;11.852;2023-02-28T18:57:20;7.60;65.30
42147;DHT22;27815;43.410;11.852;2023-02-28T19:01:24;7.60;65.30
42147;DHT22;27815;43.410;11.852;2023-02-28T19:05:31;7.60;65.30
42147;DHT22;27815;43.410;11.852;2023-02-28T19:09:35;7.70;65.30
42147;DHT22;27815;43.410;11.852;2023-02-28T19:13:38;7.70;65.30
42147;DHT22;27815;43.410;11.852;2023-02-28T19:17:41;7.60;65.40
42147;DHT22;27815;43.410;11.852;2023-02-28T19:21:44;7.70;65.40
42147;DHT22;27815;43.410;11.852;2023-02-28T19:25:47;7.60;65.40
42147;DHT22;27815;43.410;11.852;2023-02-28T19:29:50;7.60;65.50
42147;DHT22;27815;43.410;11.852;2023-02-28T19:33:54;7.60;65.60
42147;DHT22;27815;43.410;11.852;2023-02-28T19:37:59;7.60;65.60
42147;DHT22;27815;43.410;11.852;2023-02-28T19:42:02;7.60;65.70
42147;DHT22;27815;43.410;11.852;2023-02-28T19:46:05;7.60;65.70
42147;DHT22;27815;43.410;11.852;2023-02-28T19:50:08;7.60;65.70
42147;DHT22;27815;43.410;11.852;2023-02-28T19:54:11;7.70;65.70
42147;DHT22;27815;43.410;11.852;2023-02-28T19:58:14;7.60;65.60
42147;DHT22;27815;43.410;11.852;2023-02-28T20:02:17;7.80;65.50
42147;DHT22;27815;43.410;11.852;2023-02-28T20:06:20;7.70;65.50
42147;DHT22;27815;43.410;11.852;2023-02-28T20:10:23;7.70;65.50
42147;DHT22;27815;43.410;11.852;2023-02-28T20:14:26;7.80;65.50
42147;DHT22;27815;43.410;11.852;2023-02-28T20:18:29;7.70;65.50
42147;DHT22;27815;43.410;11.852;2023-02-28T20:22:31;7.70;65.60
42147;DHT22;27815;43.410;11.852;2023-02-28T20:26:34;7.70;65.70
42147;DHT22;27815;43.410;11.852;2023-02-28T20:30:38;7.70;65.90
42147;DHT22;27815;43.410;11.852;2023-02-28T20:48:38;7.70;66.10
42147;DHT22;27815;43.410;11.852;2023-02-28T20:53:31;7.70;66.10
42147;DHT22;27815;43.410;11.852;2023-02-28T21:02:47;7.70;66.20
42147;DHT22;27815;43.410;11.852;2023-02-28T21:26:22;7.60;66.50
42147;DHT22;27815;43.410;11.852;2023-02-28T21:31:07;7.60;66.50
42147;DHT22;27815;43.410;11.852;2023-02-28T21:35:24;7.60;66.50
42147;DHT22;27815;43.410;11.852;2023-02-28T21:39:41;7.60;66.50
42147;DHT22;27815;43.410;11.852;2023-02-28T21:44:15;7.60;66.60
42147;DHT22;27815;43.410;11.852;2023-02-28T21:48:29;7.70;66.60
42147;DHT22;27815;43.410;11.852;2023-02-28T21:52:47;7.70;66.60
42147;DHT22;27815;43.410;11.852;2023-02-28T21:58:14;7.60;66.60
42147;DHT22;27815;43.410;11.852;2023-02-28T22:02:34;7.60;66.60
42147;DHT22;27815;43.410;11.852;2023-02-28T22:07:12;7.60;66.60
42147;DHT22;27815;43.410;11.852;2023-02-28T22:11:38;7.60;66.60
42147;DHT22;27815;43.410;11.852;2023-02-28T22:16:14;7.60;66.60
42147;DHT22;27815;43.410;11.852;2023-02-28T22:20:37;7.60;66.70
42147;DHT22;27815;43.410;11.852;2023-02-28T22:24:57;7.50;66.70
42147;DHT22;27815;43.410;11.852;2023-02-28T22:29:36;7.60;66.70
42147;DHT22;27815;43.410;11.852;2023-02-28T22:34:00;7.60;66.70
42147;DHT22;27815;43.410;11.852;2023-02-28T22:38:21;7.50;66.70
42147;DHT22;27815;43.410;11.852;2023-02-28T22:42:44;7.60;66.60
42147;DHT22;27815;43.410;11.852;2023-02-28T22:47:05;7.60;66.70
42147;DHT22;27815;43.410;11.852;2023-02-28T22:52:10;7.60;66.70
42147;DHT22;27815;43.410;11.852;2023-02-28T22:56:37;7.50;66.70
42147;DHT22;27815;43.410;11.852;2023-02-28T23:01:18;7.60;66.80
42147;DHT22;27815;43.410;11.852;2023-02-28T23:05:39;7.50;67.00
42147;DHT22;27815;43.410;11.852;2023-02-28T23:09:59;7.50;67.00
42147;DHT22;27815;43.410;11.852;2023-02-28T23:14:31;7.50;67.10
42147;DHT22;27815;43.410;11.852;2023-02-28T23:19:31;7.50;67.20
42147;DHT22;27815;43.410;11.852;2023-02-28T23:24:20;7.40;67.40
42147;DHT22;27815;43.410;11.852;2023-02-28T23:28:57;7.40;67.60
42147;DHT22;27815;43.410;11.852;2023-02-28T23:39:14;7.40;67.70
42147;DHT22;27815;43.410;11.852;2023-02-28T23:44:58;7.40;67.80
42147;DHT22;27815;43.410;11.852;2023-02-28T23:54:07;7.20;68.30
42147;DHT22;27815;43.410;11.852;2023-02-28T23:58:37;7.20;68.50
